createdAt,value
2018-10-21T00:02:09.068Z,7.93
2018-10-21T00:04:35.993Z,7.95
2018-10-21T00:07:02.905Z,7.98
2018-10-21T00:09:29.876Z,7.99
2018-10-21T00:11:56.818Z,8.03
2018-10-21T00:14:23.759Z,8.05
2018-10-21T00:16:50.697Z,8.08
2018-10-21T00:19:17.592Z,8.08
2018-10-21T00:21:44.517Z,8.04
2018-10-21T00:24:11.450Z,8.10
2018-10-21T00:26:38.372Z,8.09
2018-10-21T00:29:05.343Z,8.10
2018-10-21T00:31:32.248Z,8.08
2018-10-21T00:33:59.152Z,8.11
2018-10-21T00:36:26.078Z,8.11
2018-10-21T00:38:53.038Z,8.10
2018-10-21T00:41:19.985Z,8.10
2018-10-21T00:43:46.964Z,8.13
2018-10-21T00:46:13.916Z,8.17
2018-10-21T00:48:40.917Z,8.19
2018-10-21T00:51:07.907Z,8.20
2018-10-21T00:53:34.785Z,8.21
2018-10-21T00:56:01.699Z,8.27
2018-10-21T00:58:28.637Z,8.30
2018-10-21T01:00:55.552Z,8.34
2018-10-21T01:03:22.513Z,8.34
2018-10-21T01:05:50.218Z,8.34
2018-10-21T01:08:17.156Z,8.31
2018-10-21T01:10:45.491Z,8.34
2018-10-21T01:13:14.928Z,8.35
2018-10-21T01:15:42.620Z,8.35
2018-10-21T01:18:09.600Z,8.32
2018-10-21T01:20:36.500Z,8.35
2018-10-21T01:23:03.620Z,8.32
2018-10-21T01:25:30.545Z,8.32
2018-10-21T01:27:57.476Z,8.29
2018-10-21T01:30:24.431Z,8.26
2018-10-21T01:32:51.356Z,8.26
2018-10-21T01:35:18.260Z,8.26
2018-10-21T01:37:45.363Z,8.25
2018-10-21T01:40:36.100Z,8.23
2018-10-21T01:43:03.526Z,8.23
2018-10-21T01:45:30.461Z,8.19
2018-10-21T01:47:58.671Z,8.31
2018-10-21T01:50:25.857Z,8.34
2018-10-21T01:52:53.669Z,8.34
2018-10-21T01:55:20.737Z,8.32
2018-10-21T01:57:47.682Z,8.32
2018-10-21T02:00:14.593Z,8.34
2018-10-21T02:02:41.532Z,8.36
2018-10-21T02:05:08.454Z,8.36
2018-10-21T02:07:35.385Z,8.34
2018-10-21T02:10:02.485Z,8.31
2018-10-21T02:12:29.856Z,8.26
2018-10-21T02:14:56.821Z,8.21
2018-10-21T02:17:23.834Z,8.11
2018-10-21T02:19:52.120Z,8.07
2018-10-21T02:22:19.032Z,8.03
2018-10-21T02:24:47.076Z,8.00
2018-10-21T02:27:14.455Z,7.95
2018-10-21T02:29:42.364Z,7.97
2018-10-21T02:32:09.278Z,8.00
2018-10-21T02:34:36.440Z,8.05
2018-10-21T02:37:03.384Z,8.08
2018-10-21T02:39:30.349Z,8.12
2018-10-21T02:41:57.275Z,8.10
2018-10-21T02:44:24.572Z,8.11
2018-10-21T02:46:52.635Z,8.12
2018-10-21T02:49:20.211Z,8.13
2018-10-21T02:51:52.823Z,8.16
2018-10-21T02:54:22.393Z,8.20
2018-10-21T02:56:49.568Z,8.22
2018-10-21T02:59:16.496Z,8.28
2018-10-21T03:01:43.399Z,8.24
2018-10-21T03:04:10.320Z,8.31
2018-10-21T03:06:37.224Z,8.34
2018-10-21T03:09:06.069Z,8.33
2018-10-21T03:11:33.013Z,8.38
2018-10-21T03:13:59.925Z,8.40
2018-10-21T03:16:26.828Z,8.45
2018-10-21T03:18:53.764Z,8.46
2018-10-21T03:21:20.786Z,8.48
2018-10-21T03:23:47.678Z,8.48
2018-10-21T03:26:14.576Z,8.56
2018-10-21T03:28:41.500Z,8.60
2018-10-21T03:31:08.424Z,8.65
2018-10-21T03:33:35.512Z,8.68
2018-10-21T03:36:02.308Z,8.72
2018-10-21T03:38:29.265Z,8.74
2018-10-21T03:40:56.307Z,8.79
2018-10-21T03:43:23.280Z,8.84
2018-10-21T03:45:50.293Z,8.84
2018-10-21T03:48:17.237Z,8.88
2018-10-21T03:50:44.128Z,8.93
2018-10-21T03:53:11.056Z,8.96
2018-10-21T03:55:39.431Z,8.97
2018-10-21T03:58:06.336Z,9.01
2018-10-21T04:00:33.512Z,9.02
2018-10-21T04:03:00.444Z,9.05
2018-10-21T04:05:27.332Z,9.06
2018-10-21T04:07:54.217Z,9.10
2018-10-21T04:10:21.118Z,9.15
2018-10-21T04:12:47.993Z,9.15
2018-10-21T04:15:14.886Z,9.14
2018-10-21T04:17:41.769Z,9.14
2018-10-21T04:20:08.768Z,9.14
2018-10-21T04:22:43.856Z,9.12
2018-10-21T04:25:10.914Z,9.12
2018-10-21T04:27:37.818Z,9.14
2018-10-21T04:30:05.973Z,9.09
2018-10-21T04:32:33.393Z,9.10
2018-10-21T04:35:00.300Z,9.12
2018-10-21T04:37:38.880Z,9.10
2018-10-21T04:40:15.405Z,9.09
2018-10-21T04:42:42.662Z,9.04
2018-10-21T04:45:10.357Z,9.04
2018-10-21T04:47:37.260Z,9.08
2018-10-21T04:50:05.299Z,9.08
2018-10-21T04:52:32.696Z,9.08
2018-10-21T04:55:06.516Z,9.06
2018-10-21T04:57:34.017Z,9.03
2018-10-21T05:00:00.960Z,8.97
2018-10-21T05:02:28.804Z,8.99
2018-10-21T05:04:55.729Z,8.96
2018-10-21T05:07:22.656Z,8.92
2018-10-21T05:09:49.553Z,8.93
2018-10-21T05:12:16.433Z,8.86
2018-10-21T05:14:43.396Z,8.94
2018-10-21T05:17:10.333Z,9.01
2018-10-21T05:19:37.240Z,9.02
2018-10-21T05:22:04.757Z,9.02
2018-10-21T05:24:31.624Z,8.99
2018-10-21T05:26:58.521Z,8.95
2018-10-21T05:29:25.395Z,9.00
2018-10-21T05:31:52.291Z,8.99
2018-10-21T05:34:19.197Z,9.00
2018-10-21T05:36:46.101Z,9.03
2018-10-21T05:39:13.076Z,9.05
2018-10-21T05:41:40.448Z,9.10
2018-10-21T05:44:07.452Z,9.10
2018-10-21T05:46:41.943Z,9.08
2018-10-21T05:49:09.060Z,9.11
2018-10-21T05:51:36.058Z,9.13
2018-10-21T05:54:03.029Z,9.15
2018-10-21T05:56:29.933Z,9.16
2018-10-21T05:58:56.825Z,9.14
2018-10-21T06:01:23.737Z,9.19
2018-10-21T06:03:50.632Z,9.21
2018-10-21T06:06:17.540Z,9.24
2018-10-21T06:08:44.436Z,9.26
2018-10-21T06:11:11.340Z,9.32
2018-10-21T06:13:38.228Z,9.33
2018-10-21T06:16:05.249Z,9.33
2018-10-21T06:18:32.132Z,9.36
2018-10-21T06:21:01.976Z,9.39
2018-10-21T06:23:28.862Z,9.43
2018-10-21T06:25:55.759Z,9.44
2018-10-21T06:28:22.648Z,9.45
2018-10-21T06:30:49.559Z,9.47
2018-10-21T06:33:16.452Z,9.48
2018-10-21T06:35:43.349Z,9.50
2018-10-21T06:38:10.265Z,9.55
2018-10-21T06:43:10.893Z,9.63
2018-10-21T06:45:37.800Z,9.65
2018-10-21T06:48:04.928Z,9.67
2018-10-21T06:50:31.829Z,9.67
2018-10-21T06:52:58.753Z,9.68
2018-10-21T06:55:25.653Z,9.73
2018-10-21T06:57:52.626Z,9.75
2018-10-21T07:00:19.478Z,9.75
2018-10-21T07:02:46.388Z,9.74
2018-10-21T07:05:24.916Z,9.71
2018-10-21T07:07:52.068Z,9.71
2018-10-21T07:10:19.721Z,9.71
2018-10-21T07:12:46.632Z,9.73
2018-10-21T07:15:13.609Z,9.77
2018-10-21T07:17:40.497Z,9.81
2018-10-21T07:20:07.618Z,9.86
2018-10-21T07:22:34.517Z,9.90
2018-10-21T07:25:01.432Z,9.89
2018-10-21T07:27:28.334Z,9.89
2018-10-21T07:29:55.236Z,9.96
2018-10-21T07:32:22.136Z,9.95
2018-10-21T07:34:49.037Z,9.98
2018-10-21T07:37:15.948Z,10.05
2018-10-21T07:39:42.861Z,10.06
2018-10-21T07:42:09.773Z,10.06
2018-10-21T07:44:36.675Z,10.13
2018-10-21T07:47:03.612Z,10.18
2018-10-21T07:49:30.518Z,10.22
2018-10-21T07:51:57.438Z,10.21
2018-10-21T07:54:24.329Z,10.23
2018-10-21T07:56:51.229Z,10.25
2018-10-21T07:59:18.136Z,10.30
2018-10-21T08:01:45.065Z,10.36
2018-10-21T08:04:12.099Z,10.40
2018-10-21T08:06:50.713Z,10.44
2018-10-21T08:09:17.610Z,10.49
2018-10-21T08:11:44.521Z,10.51
2018-10-21T08:14:11.424Z,10.55
2018-10-21T08:16:38.337Z,10.57
2018-10-21T08:19:05.259Z,10.61
2018-10-21T08:21:32.196Z,10.62
2018-10-21T08:23:59.114Z,10.61
2018-10-21T08:26:26.033Z,10.66
2018-10-21T08:28:52.936Z,10.71
2018-10-21T08:31:19.863Z,10.77
2018-10-21T08:33:46.779Z,10.82
2018-10-21T08:36:13.749Z,10.94
2018-10-21T08:38:40.656Z,11.01
2018-10-21T08:41:07.589Z,11.08
2018-10-21T08:43:34.493Z,11.19
2018-10-21T08:46:01.369Z,11.23
2018-10-21T08:48:28.296Z,11.28
2018-10-21T08:50:55.184Z,11.27
2018-10-21T08:53:22.086Z,11.28
2018-10-21T08:55:49.028Z,11.25
2018-10-21T08:58:16.711Z,11.34
2018-10-21T09:00:43.537Z,11.34
2018-10-21T09:03:10.422Z,11.44
2018-10-21T09:05:37.316Z,11.54
2018-10-21T09:08:04.604Z,11.58
2018-10-21T09:10:31.575Z,11.70
2018-10-21T09:12:59.796Z,11.77
2018-10-21T09:15:27.531Z,11.81
2018-10-21T09:17:54.363Z,11.81
2018-10-21T09:20:21.261Z,11.95
2018-10-21T09:22:48.161Z,12.08
2018-10-21T09:25:15.130Z,12.16
2018-10-21T09:27:42.896Z,12.24
2018-10-21T09:30:12.825Z,12.27
2018-10-21T09:32:39.737Z,12.49
2018-10-21T09:35:08.651Z,12.60
2018-10-21T09:37:35.557Z,12.65
2018-10-21T09:40:02.679Z,12.72
2018-10-21T09:42:29.532Z,12.78
2018-10-21T09:44:56.432Z,12.90
2018-10-21T09:47:23.346Z,12.98
2018-10-21T09:49:50.285Z,13.04
2018-10-21T09:52:17.277Z,13.07
2018-10-21T09:54:44.065Z,13.15
2018-10-21T09:57:10.954Z,13.32
2018-10-21T09:59:37.834Z,13.51
2018-10-21T10:02:11.166Z,13.51
2018-10-21T10:04:38.068Z,13.50
2018-10-21T10:07:05.031Z,13.47
2018-10-21T10:09:31.927Z,13.54
2018-10-21T10:11:58.909Z,13.39
2018-10-21T10:14:25.828Z,13.50
2018-10-21T10:16:52.732Z,13.49
2018-10-21T10:19:19.725Z,13.48
2018-10-21T10:21:46.596Z,13.42
2018-10-21T10:24:14.504Z,13.42
2018-10-21T10:26:42.602Z,13.44
2018-10-21T10:29:10.688Z,13.57
2018-10-21T10:31:38.608Z,13.50
2018-10-21T10:34:05.596Z,13.50
2018-10-21T10:36:32.517Z,13.55
2018-10-21T10:38:59.499Z,13.52
2018-10-21T10:41:26.429Z,13.48
2018-10-21T10:43:54.105Z,13.54
2018-10-21T10:46:21.053Z,13.63
2018-10-21T10:48:47.937Z,13.67
2018-10-21T10:51:14.837Z,13.73
2018-10-21T10:53:41.720Z,13.89
2018-10-21T10:56:08.603Z,13.94
2018-10-21T10:58:35.480Z,13.95
2018-10-21T11:01:02.456Z,14.01
2018-10-21T11:03:29.309Z,14.06
2018-10-21T11:05:56.209Z,14.17
2018-10-21T11:08:29.824Z,14.15
2018-10-21T11:10:56.892Z,14.04
2018-10-21T11:13:23.797Z,14.10
2018-10-21T11:15:50.728Z,14.03
2018-10-21T11:18:17.616Z,13.98
2018-10-21T11:20:45.116Z,13.95
2018-10-21T11:23:12.008Z,13.95
2018-10-21T11:25:38.892Z,14.02
2018-10-21T11:28:05.892Z,14.11
2018-10-21T11:30:32.774Z,14.12
2018-10-21T11:32:59.697Z,14.08
2018-10-21T11:35:26.579Z,14.16
2018-10-21T11:37:53.447Z,14.21
2018-10-21T11:40:20.352Z,14.25
2018-10-21T11:42:47.274Z,14.19
2018-10-21T11:45:14.158Z,14.37
2018-10-21T11:47:41.053Z,14.53
2018-10-21T11:50:07.949Z,14.49
2018-10-21T11:52:34.983Z,14.55
2018-10-21T11:55:01.922Z,14.64
2018-10-21T11:57:28.756Z,14.64
2018-10-21T11:59:55.668Z,14.58
2018-10-21T12:02:22.587Z,14.58
2018-10-21T12:04:49.484Z,14.81
2018-10-21T12:07:16.435Z,14.85
2018-10-21T12:09:43.288Z,15.00
2018-10-21T12:12:10.220Z,15.02
2018-10-21T12:14:37.105Z,15.04
2018-10-21T12:17:04.282Z,15.01
2018-10-21T12:19:31.183Z,15.06
2018-10-21T12:21:58.089Z,15.13
2018-10-21T12:24:24.985Z,15.12
2018-10-21T12:26:51.942Z,14.91
2018-10-21T12:29:18.932Z,14.82
2018-10-21T12:31:45.773Z,14.83
2018-10-21T12:34:12.661Z,14.81
2018-10-21T12:36:39.564Z,14.75
2018-10-21T12:39:07.688Z,14.86
2018-10-21T12:41:34.606Z,15.11
2018-10-21T12:44:01.508Z,15.28
2018-10-21T12:46:28.420Z,15.45
2018-10-21T12:48:55.333Z,15.41
2018-10-21T12:51:22.253Z,15.22
2018-10-21T12:53:49.194Z,15.13
2018-10-21T12:56:16.095Z,15.07
2018-10-21T12:58:43.028Z,15.01
2018-10-21T13:01:10.038Z,15.16
2018-10-21T13:03:36.918Z,15.20
2018-10-21T13:06:03.826Z,15.22
2018-10-21T13:08:30.748Z,15.23
2018-10-21T13:10:57.653Z,15.24
2018-10-21T13:13:24.568Z,15.09
2018-10-21T13:15:51.457Z,15.01
2018-10-21T13:18:18.374Z,15.04
2018-10-21T13:20:45.266Z,15.05
2018-10-21T13:23:12.175Z,15.07
2018-10-21T13:25:39.056Z,15.10
2018-10-21T13:28:06.013Z,15.13
2018-10-21T13:30:32.892Z,15.16
2018-10-21T13:32:59.792Z,15.16
2018-10-21T13:35:26.696Z,15.01
2018-10-21T13:37:53.591Z,14.95
2018-10-21T13:40:20.599Z,14.97
2018-10-21T13:42:47.433Z,14.96
2018-10-21T13:45:14.319Z,14.94
2018-10-21T13:47:41.240Z,14.93
2018-10-21T13:50:08.171Z,15.00
2018-10-21T13:52:35.136Z,14.96
2018-10-21T13:55:02.027Z,14.90
2018-10-21T13:57:28.948Z,14.85
2018-10-21T13:59:55.847Z,14.78
2018-10-21T14:02:22.740Z,14.78
2018-10-21T14:04:49.641Z,14.74
2018-10-21T14:07:16.572Z,14.78
2018-10-21T14:09:43.456Z,14.82
2018-10-21T14:12:10.384Z,14.74
2018-10-21T14:14:37.284Z,14.69
2018-10-21T14:17:04.226Z,14.66
2018-10-21T14:19:31.124Z,14.68
2018-10-21T14:21:58.091Z,14.71
2018-10-21T14:24:24.980Z,14.71
2018-10-21T14:26:51.865Z,14.70
2018-10-21T14:29:18.790Z,14.70
2018-10-21T14:31:45.684Z,14.73
2018-10-21T14:34:12.587Z,14.82
2018-10-21T14:36:39.473Z,14.77
2018-10-21T14:39:08.259Z,14.72
2018-10-21T14:41:35.140Z,14.65
2018-10-21T14:44:02.050Z,14.61
2018-10-21T14:46:28.951Z,14.56
2018-10-21T14:48:55.846Z,14.52
2018-10-21T14:51:22.738Z,14.49
2018-10-21T14:53:49.644Z,14.46
2018-10-21T14:56:16.589Z,14.39
2018-10-21T14:58:43.444Z,14.40
2018-10-21T15:01:10.531Z,14.41
2018-10-21T15:03:37.523Z,14.36
2018-10-21T15:06:04.347Z,14.32
2018-10-21T15:08:31.233Z,14.31
2018-10-21T15:10:58.116Z,14.29
2018-10-21T15:13:24.997Z,14.27
2018-10-21T15:15:51.889Z,14.26
2018-10-21T15:18:18.912Z,14.23
2018-10-21T15:20:45.692Z,14.20
2018-10-21T15:23:12.688Z,14.19
2018-10-21T15:25:39.525Z,14.17
2018-10-21T15:28:06.477Z,14.17
2018-10-21T15:30:33.346Z,14.16
2018-10-21T15:33:00.238Z,14.11
2018-10-21T15:35:27.136Z,14.11
2018-10-21T15:37:54.041Z,14.10
2018-10-21T15:40:21.072Z,14.13
2018-10-21T15:42:47.981Z,14.06
2018-10-21T15:45:14.780Z,14.03
2018-10-21T15:47:41.659Z,14.00
2018-10-21T15:50:08.877Z,13.97
2018-10-21T15:52:35.729Z,13.95
2018-10-21T15:55:02.646Z,13.94
2018-10-21T15:57:29.560Z,13.93
2018-10-21T15:59:56.460Z,13.92
2018-10-21T16:02:23.415Z,13.91
2018-10-21T16:04:50.292Z,13.90
2018-10-21T16:07:17.182Z,13.88
2018-10-21T16:09:44.093Z,13.87
2018-10-21T16:12:11.004Z,13.85
2018-10-21T16:14:37.970Z,13.84
2018-10-21T16:17:05.036Z,13.85
2018-10-21T16:19:31.967Z,13.83
2018-10-21T16:21:58.856Z,13.83
2018-10-21T16:24:25.765Z,13.82
2018-10-21T16:26:52.669Z,13.78
2018-10-21T16:29:19.560Z,13.78
2018-10-21T16:31:46.537Z,13.77
2018-10-21T16:34:14.198Z,13.76
2018-10-21T16:36:41.037Z,13.74
2018-10-21T16:39:08.927Z,13.70
2018-10-21T16:41:35.789Z,13.69
2018-10-21T16:44:02.696Z,13.68
2018-10-21T16:46:29.592Z,13.65
2018-10-21T16:48:56.496Z,13.62
2018-10-21T16:51:23.450Z,13.58
2018-10-21T16:53:50.325Z,13.56
2018-10-21T16:56:17.242Z,13.52
2018-10-21T16:58:44.141Z,13.45
2018-10-21T17:01:11.075Z,13.44
2018-10-21T17:03:38.079Z,13.44
2018-10-21T17:06:04.862Z,13.45
2018-10-21T17:08:31.748Z,13.45
2018-10-21T17:10:58.795Z,13.43
2018-10-21T17:13:25.578Z,13.37
2018-10-21T17:15:52.476Z,13.33
2018-10-21T17:18:19.357Z,13.22
2018-10-21T17:20:46.261Z,13.18
2018-10-21T17:23:13.161Z,13.15
2018-10-21T17:25:40.051Z,13.04
2018-10-21T17:28:06.958Z,12.99
2018-10-21T17:30:33.930Z,12.89
2018-10-21T17:33:00.728Z,12.84
2018-10-21T17:35:27.685Z,12.77
2018-10-21T17:37:54.584Z,12.74
2018-10-21T17:40:21.492Z,12.70
2018-10-21T17:42:48.371Z,12.67
2018-10-21T17:45:15.350Z,12.65
2018-10-21T17:47:42.282Z,12.58
2018-10-21T17:50:10.659Z,12.57
2018-10-21T17:52:37.692Z,12.52
2018-10-21T17:55:04.527Z,12.48
2018-10-21T17:57:31.448Z,12.46
2018-10-21T17:59:58.410Z,12.40
2018-10-21T18:02:25.420Z,12.46
2018-10-21T18:04:52.292Z,12.43
2018-10-21T18:07:19.208Z,12.42
2018-10-21T18:09:46.096Z,12.38
2018-10-21T18:12:12.992Z,12.38
2018-10-21T18:14:39.896Z,12.43
2018-10-21T18:17:06.813Z,12.46
2018-10-21T18:19:33.718Z,12.48
2018-10-21T18:22:00.616Z,12.48
2018-10-21T18:24:27.519Z,12.52
2018-10-21T18:26:54.416Z,12.52
2018-10-21T18:29:21.565Z,12.48
2018-10-21T18:31:48.555Z,12.49
2018-10-21T18:34:15.795Z,12.43
2018-10-21T18:36:42.765Z,12.38
2018-10-21T18:39:10.411Z,12.30
2018-10-21T18:41:37.779Z,12.29
2018-10-21T18:44:05.437Z,12.35
2018-10-21T18:46:32.500Z,12.36
2018-10-21T18:49:00.269Z,12.37
2018-10-21T18:51:27.250Z,12.37
2018-10-21T18:53:54.347Z,12.41
2018-10-21T18:56:21.904Z,12.40
2018-10-21T18:58:48.970Z,12.33
2018-10-21T19:01:15.927Z,12.24
2018-10-21T19:03:42.811Z,12.27
2018-10-21T19:06:09.693Z,12.20
2018-10-21T19:08:36.575Z,12.19
2018-10-21T19:11:03.528Z,12.17
2018-10-21T19:13:30.675Z,12.17
2018-10-21T19:15:57.711Z,12.18
2018-10-21T19:18:24.612Z,12.20
2018-10-21T19:20:51.605Z,12.22
2018-10-21T19:23:18.569Z,12.21
2018-10-21T19:25:45.493Z,12.13
2018-10-21T19:28:12.511Z,12.11
2018-10-21T19:30:39.444Z,12.06
2018-10-21T19:33:06.657Z,12.02
2018-10-21T19:35:33.576Z,12.03
2018-10-21T19:38:00.477Z,11.99
2018-10-21T19:40:27.380Z,12.02
2018-10-21T19:42:54.272Z,12.10
2018-10-21T19:45:21.172Z,12.15
2018-10-21T19:47:48.058Z,12.15
2018-10-21T19:50:15.797Z,12.20
2018-10-21T19:52:43.025Z,12.24
2018-10-21T19:55:10.383Z,12.25
2018-10-21T19:57:37.159Z,12.31
2018-10-21T20:00:06.058Z,12.29
2018-10-21T20:02:32.995Z,12.31
2018-10-21T20:04:59.891Z,12.27
2018-10-21T20:07:26.894Z,12.36
2018-10-21T20:09:53.914Z,12.36
2018-10-21T20:12:21.145Z,12.37
2018-10-21T20:14:48.485Z,12.41
2018-10-21T20:17:15.368Z,12.37
2018-10-21T20:19:42.253Z,12.39
2018-10-21T20:22:10.275Z,12.43
2018-10-21T20:24:37.186Z,12.41
2018-10-21T20:27:04.445Z,12.40
2018-10-21T20:29:31.353Z,12.43
2018-10-21T20:31:58.228Z,12.43
2018-10-21T20:34:25.113Z,12.46
2018-10-21T20:36:52.158Z,12.43
2018-10-21T20:39:19.139Z,12.45
2018-10-21T20:41:46.059Z,12.46
2018-10-21T20:44:12.988Z,12.41
2018-10-21T20:46:39.825Z,12.45
2018-10-21T20:49:06.708Z,12.43
2018-10-21T20:51:33.742Z,12.43
2018-10-21T20:54:00.675Z,12.45
2018-10-21T20:56:27.776Z,12.45
2018-10-21T20:58:54.718Z,12.41
2018-10-21T21:01:21.617Z,12.40
2018-10-21T21:03:48.505Z,12.39
2018-10-21T21:06:15.443Z,12.39
2018-10-21T21:08:42.300Z,12.41
2018-10-21T21:11:09.842Z,12.42
2018-10-21T21:13:36.749Z,12.40
2018-10-21T21:16:04.135Z,12.40
2018-10-21T21:18:30.988Z,12.39
2018-10-21T21:20:57.894Z,12.37
2018-10-21T21:23:24.780Z,12.33
2018-10-21T21:25:51.664Z,12.37
2018-10-21T21:28:18.551Z,12.39
2018-10-21T21:30:45.514Z,12.40
2018-10-21T21:33:12.381Z,12.36
2018-10-21T21:35:39.276Z,12.35
2018-10-21T21:38:06.196Z,12.37
2018-10-21T21:40:33.093Z,12.35
2018-10-21T21:43:00.372Z,12.34
2018-10-21T21:45:27.256Z,12.36
2018-10-21T21:47:54.351Z,12.33
2018-10-21T21:50:21.204Z,12.31
2018-10-21T21:52:48.148Z,12.24
2018-10-21T21:55:15.100Z,12.22
2018-10-21T21:57:41.980Z,12.23
2018-10-21T22:00:11.771Z,12.25
2018-10-21T22:02:38.660Z,12.24
2018-10-21T22:05:07.080Z,12.24
2018-10-21T22:07:34.504Z,12.24
2018-10-21T22:10:01.490Z,12.20
2018-10-21T22:12:30.351Z,12.14
2018-10-21T22:14:57.320Z,12.03
2018-10-21T22:17:24.290Z,11.96
2018-10-21T22:19:51.204Z,11.93
2018-10-21T22:22:18.194Z,11.95
2018-10-21T22:24:45.037Z,11.99
2018-10-21T22:27:11.933Z,12.00
2018-10-21T22:29:38.886Z,11.96
2018-10-21T22:32:05.791Z,11.99
2018-10-21T22:34:32.692Z,12.03
2018-10-21T22:36:59.596Z,12.06
2018-10-21T22:39:26.535Z,12.09
2018-10-21T22:41:53.534Z,12.12
2018-10-21T22:44:20.602Z,12.12
2018-10-21T22:46:47.788Z,12.13
2018-10-21T22:49:14.545Z,12.17
2018-10-21T22:51:42.492Z,12.19
2018-10-21T22:54:09.415Z,12.22
2018-10-21T22:56:36.293Z,12.21
2018-10-21T22:59:03.216Z,12.24
2018-10-21T23:01:30.107Z,12.25
2018-10-21T23:03:56.995Z,12.29
2018-10-21T23:06:23.893Z,12.31
2018-10-21T23:08:50.784Z,12.31
2018-10-21T23:11:17.665Z,12.30
2018-10-21T23:13:44.535Z,12.29
2018-10-21T23:16:11.492Z,12.32
2018-10-21T23:18:38.363Z,12.34
2018-10-21T23:21:05.227Z,12.33
2018-10-21T23:23:32.112Z,12.34
2018-10-21T23:25:59.007Z,12.33
2018-10-21T23:28:25.884Z,12.34
2018-10-21T23:30:52.781Z,12.32
2018-10-21T23:33:19.676Z,12.33
2018-10-21T23:35:46.563Z,12.30
2018-10-21T23:38:13.462Z,12.33
2018-10-21T23:40:40.356Z,12.32
2018-10-21T23:43:07.249Z,12.35
2018-10-21T23:45:34.141Z,12.35
2018-10-21T23:48:01.080Z,12.34
2018-10-21T23:53:01.595Z,12.37
2018-10-21T23:55:28.477Z,12.35
2018-10-21T23:57:55.398Z,12.37
